createdAt,value
2019-03-22T00:02:28.099Z,4.80
2019-03-22T00:05:08.486Z,4.90
2019-03-22T00:07:49.729Z,4.80
2019-03-22T00:10:30.260Z,5.00
2019-03-22T00:13:10.517Z,4.90
2019-03-22T00:15:50.973Z,4.90
2019-03-22T00:18:31.914Z,4.80
2019-03-22T00:21:12.181Z,4.70
2019-03-22T00:23:52.490Z,4.80
2019-03-22T00:26:33.892Z,4.80
2019-03-22T00:29:13.606Z,4.70
2019-03-22T00:31:53.683Z,4.80
2019-03-22T00:34:35.036Z,4.80
2019-03-22T00:37:15.153Z,4.70
2019-03-22T00:39:55.822Z,4.70
2019-03-22T00:42:35.409Z,4.60
2019-03-22T00:45:15.429Z,4.50
2019-03-22T00:47:56.089Z,4.30
2019-03-22T00:50:37.081Z,4.40
2019-03-22T00:53:17.973Z,4.40
2019-03-22T00:55:58.254Z,4.50
2019-03-22T00:58:38.438Z,4.50
2019-03-22T01:01:18.624Z,4.40
2019-03-22T01:03:59.298Z,4.40
2019-03-22T01:06:39.563Z,4.20
2019-03-22T01:09:20.861Z,4.10
2019-03-22T01:12:00.371Z,4.00
2019-03-22T01:14:40.477Z,4.00
2019-03-22T01:17:20.726Z,4.00
2019-03-22T01:20:00.110Z,3.90
2019-03-22T01:22:40.967Z,3.90
2019-03-22T01:25:21.418Z,4.00
2019-03-22T01:28:01.548Z,3.90
2019-03-22T01:30:42.284Z,3.80
2019-03-22T01:33:22.865Z,3.70
2019-03-22T01:36:03.529Z,3.70
2019-03-22T01:38:44.281Z,3.70
2019-03-22T01:41:24.044Z,3.70
2019-03-22T01:47:03.477Z,3.80
2019-03-22T01:49:43.594Z,3.80
2019-03-22T01:52:23.559Z,3.80
2019-03-22T01:54:52.647Z,3.70
2019-03-22T01:57:48.080Z,3.70
2019-03-22T02:00:28.548Z,3.80
2019-03-22T02:03:08.546Z,3.70
2019-03-22T02:05:48.970Z,3.60
2019-03-22T02:08:29.350Z,3.40
2019-03-22T02:11:09.854Z,3.50
2019-03-22T02:13:49.878Z,3.50
2019-03-22T02:16:29.653Z,3.40
2019-03-22T02:19:09.445Z,3.40
2019-03-22T02:21:50.690Z,3.30
2019-03-22T02:24:30.970Z,3.40
2019-03-22T02:27:11.229Z,3.40
2019-03-22T02:29:51.405Z,3.50
2019-03-22T02:32:33.803Z,3.40
2019-03-22T02:35:27.433Z,3.30
2019-03-22T02:37:56.393Z,3.40
2019-03-22T02:40:36.369Z,3.40
2019-03-22T02:43:16.610Z,3.50
2019-03-22T02:45:57.789Z,3.40
2019-03-22T02:48:38.566Z,3.40
2019-03-22T02:51:18.555Z,3.20
2019-03-22T02:53:59.363Z,3.20
2019-03-22T02:56:39.890Z,3.00
2019-03-22T02:59:20.690Z,3.10
2019-03-22T03:02:01.141Z,3.10
2019-03-22T03:04:41.503Z,3.20
2019-03-22T03:07:21.045Z,3.20
2019-03-22T03:10:00.895Z,3.10
2019-03-22T03:12:41.261Z,3.20
2019-03-22T03:15:21.238Z,3.30
2019-03-22T03:18:01.855Z,3.10
2019-03-22T03:20:42.753Z,3.10
2019-03-22T03:23:23.321Z,3.00
2019-03-22T03:26:04.885Z,3.10
2019-03-22T03:28:45.329Z,2.90
2019-03-22T03:31:25.434Z,2.90
2019-03-22T03:34:05.155Z,3.00
2019-03-22T03:36:45.490Z,3.00
2019-03-22T03:39:25.463Z,3.10
2019-03-22T03:42:05.697Z,3.00
2019-03-22T03:44:46.073Z,3.00
2019-03-22T03:47:27.358Z,2.90
2019-03-22T03:50:08.041Z,2.80
2019-03-22T03:52:47.918Z,2.80
2019-03-22T03:55:27.830Z,2.70
2019-03-22T03:58:07.917Z,2.60
2019-03-22T04:00:48.314Z,2.80
2019-03-22T04:03:27.746Z,2.90
2019-03-22T04:06:08.439Z,2.90
2019-03-22T04:08:48.687Z,2.80
2019-03-22T04:11:28.182Z,2.80
2019-03-22T04:14:08.421Z,2.60
2019-03-22T04:16:49.269Z,2.50
2019-03-22T04:19:30.878Z,2.60
2019-03-22T04:22:11.694Z,2.60
2019-03-22T04:24:54.026Z,2.60
2019-03-22T04:27:34.174Z,2.60
2019-03-22T04:30:14.540Z,2.60
2019-03-22T04:32:55.647Z,2.70
2019-03-22T04:35:35.794Z,2.60
2019-03-22T04:38:15.698Z,2.50
2019-03-22T04:40:56.098Z,2.60
2019-03-22T04:43:36.770Z,2.60
2019-03-22T04:46:17.235Z,2.50
2019-03-22T04:48:57.182Z,2.60
2019-03-22T04:51:37.138Z,2.70
2019-03-22T04:54:18.632Z,2.70
2019-03-22T04:56:59.681Z,2.70
2019-03-22T04:59:40.040Z,2.70
2019-03-22T05:02:21.316Z,2.50
2019-03-22T05:05:01.449Z,2.60
2019-03-22T05:07:41.941Z,2.60
2019-03-22T05:10:21.606Z,2.70
2019-03-22T05:13:01.803Z,2.70
2019-03-22T05:15:41.990Z,2.40
2019-03-22T05:18:22.557Z,2.40
2019-03-22T05:21:02.578Z,2.40
2019-03-22T05:23:42.634Z,2.40
2019-03-22T05:26:22.939Z,2.50
2019-03-22T05:29:03.451Z,2.50
2019-03-22T05:31:44.097Z,2.40
2019-03-22T05:34:23.926Z,2.50
2019-03-22T05:37:03.865Z,2.40
2019-03-22T05:39:44.579Z,2.40
2019-03-22T05:42:25.357Z,2.30
2019-03-22T05:45:06.457Z,2.50
2019-03-22T05:47:46.385Z,2.50
2019-03-22T05:50:26.406Z,2.40
2019-03-22T05:53:07.324Z,2.30
2019-03-22T05:55:48.187Z,2.40
2019-03-22T05:58:29.172Z,2.50
2019-03-22T06:01:11.626Z,2.70
2019-03-22T06:03:51.907Z,2.60
2019-03-22T06:06:32.404Z,2.60
2019-03-22T06:09:13.425Z,2.50
2019-03-22T06:11:54.100Z,2.30
2019-03-22T06:14:35.376Z,2.20
2019-03-22T06:17:15.813Z,2.00
2019-03-22T06:19:55.720Z,2.10
2019-03-22T06:22:35.814Z,2.20
2019-03-22T06:25:16.106Z,2.30
2019-03-22T06:27:57.007Z,2.60
2019-03-22T06:30:36.850Z,2.70
2019-03-22T06:33:16.748Z,3.00
2019-03-22T06:35:57.199Z,3.10
2019-03-22T06:38:39.378Z,3.20
2019-03-22T06:41:19.918Z,3.30
2019-03-22T06:43:59.761Z,3.40
2019-03-22T06:46:39.978Z,3.50
2019-03-22T06:49:20.421Z,3.50
2019-03-22T06:52:00.105Z,3.60
2019-03-22T06:54:40.606Z,3.60
2019-03-22T06:57:23.713Z,3.70
2019-03-22T07:00:06.756Z,3.80
2019-03-22T07:02:47.306Z,3.80
2019-03-22T07:05:15.796Z,4.00
2019-03-22T07:08:02.847Z,4.00
2019-03-22T07:10:42.768Z,4.10
2019-03-22T07:13:22.727Z,4.30
2019-03-22T07:16:03.737Z,4.40
2019-03-22T07:18:45.127Z,4.60
2019-03-22T07:21:25.341Z,4.60
2019-03-22T07:24:06.834Z,4.70
2019-03-22T07:26:46.967Z,4.70
2019-03-22T07:29:26.946Z,5.00
2019-03-22T07:32:07.586Z,5.10
2019-03-22T07:34:47.581Z,5.20
2019-03-22T07:37:27.807Z,5.20
2019-03-22T07:40:07.865Z,5.30
2019-03-22T07:42:48.483Z,5.50
2019-03-22T07:45:28.421Z,5.50
2019-03-22T07:48:10.182Z,5.80
2019-03-22T07:50:50.354Z,5.80
2019-03-22T07:53:30.514Z,5.90
2019-03-22T07:56:10.667Z,6.00
2019-03-22T07:58:50.755Z,6.10
2019-03-22T08:01:32.315Z,6.20
2019-03-22T08:04:12.481Z,6.30
2019-03-22T08:06:53.378Z,6.40
2019-03-22T08:09:33.897Z,6.60
2019-03-22T08:12:13.807Z,6.60
2019-03-22T08:14:53.543Z,6.60
2019-03-22T08:17:33.482Z,6.70
2019-03-22T08:20:14.496Z,6.80
2019-03-22T08:22:43.084Z,7.20
2019-03-22T08:25:32.544Z,7.10
2019-03-22T08:28:25.070Z,7.30
2019-03-22T08:31:05.719Z,7.30
2019-03-22T08:33:45.980Z,7.40
2019-03-22T08:36:26.428Z,7.50
2019-03-22T08:39:06.684Z,7.60
2019-03-22T08:41:47.218Z,7.60
2019-03-22T08:44:26.962Z,7.70
2019-03-22T08:47:07.109Z,7.90
2019-03-22T08:49:47.319Z,8.00
2019-03-22T08:52:27.570Z,8.10
2019-03-22T08:55:07.984Z,8.30
2019-03-22T08:57:48.608Z,8.50
2019-03-22T09:00:38.552Z,8.60
2019-03-22T09:03:10.714Z,8.70
2019-03-22T09:05:50.629Z,8.80
2019-03-22T09:08:31.172Z,9.00
2019-03-22T09:11:10.945Z,9.00
2019-03-22T09:13:53.758Z,9.10
2019-03-22T09:16:34.744Z,9.30
2019-03-22T09:19:15.363Z,9.40
2019-03-22T09:21:55.606Z,9.60
2019-03-22T09:24:39.325Z,9.60
2019-03-22T09:27:18.561Z,9.70
2019-03-22T09:29:58.679Z,10.00
2019-03-22T09:32:39.243Z,10.10
2019-03-22T09:35:19.086Z,10.10
2019-03-22T09:38:12.058Z,10.30
2019-03-22T09:40:41.152Z,10.50
2019-03-22T09:43:21.759Z,10.50
2019-03-22T09:46:02.354Z,10.60
2019-03-22T09:48:42.119Z,10.90
2019-03-22T09:51:10.121Z,11.30
2019-03-22T09:54:00.245Z,11.10
2019-03-22T09:56:46.779Z,11.30
2019-03-22T09:59:21.612Z,11.40
2019-03-22T10:02:01.302Z,11.50
2019-03-22T10:04:41.522Z,11.60
2019-03-22T10:07:21.595Z,11.70
2019-03-22T10:10:02.249Z,11.70
2019-03-22T10:12:43.333Z,11.90
2019-03-22T10:15:23.976Z,11.90
2019-03-22T10:18:04.142Z,12.00
2019-03-22T10:20:44.426Z,12.00
2019-03-22T10:23:24.440Z,12.10
2019-03-22T10:26:04.665Z,12.20
2019-03-22T10:28:44.629Z,12.30
2019-03-22T10:31:36.594Z,12.30
2019-03-22T10:34:06.762Z,12.40
2019-03-22T10:36:46.804Z,12.40
2019-03-22T10:39:26.664Z,12.40
2019-03-22T10:42:06.930Z,12.60
2019-03-22T10:44:46.613Z,12.60
2019-03-22T10:47:26.867Z,12.70
2019-03-22T10:50:07.149Z,12.90
2019-03-22T10:52:48.228Z,12.90
2019-03-22T10:55:29.313Z,13.00
2019-03-22T10:58:20.843Z,13.00
2019-03-22T11:01:08.659Z,13.20
2019-03-22T11:03:57.510Z,13.10
2019-03-22T11:06:37.869Z,13.10
2019-03-22T11:09:18.622Z,13.20
2019-03-22T11:11:58.421Z,13.20
2019-03-22T11:14:38.935Z,13.20
2019-03-22T11:17:19.038Z,13.20
2019-03-22T11:19:58.945Z,13.40
2019-03-22T11:22:38.878Z,13.40
2019-03-22T11:25:19.761Z,13.40
2019-03-22T11:28:00.671Z,13.40
2019-03-22T11:30:41.279Z,13.30
2019-03-22T11:33:21.139Z,13.40
2019-03-22T11:36:01.603Z,13.40
2019-03-22T11:38:42.348Z,13.50
2019-03-22T11:41:22.069Z,13.50
2019-03-22T11:44:02.480Z,13.60
2019-03-22T11:46:43.932Z,13.60
2019-03-22T11:49:23.718Z,13.70
2019-03-22T11:52:03.981Z,13.60
2019-03-22T11:54:44.761Z,13.80
2019-03-22T11:57:24.611Z,13.90
2019-03-22T12:00:04.562Z,13.90
2019-03-22T12:02:47.017Z,13.80
2019-03-22T12:05:26.690Z,13.80
2019-03-22T12:08:07.080Z,13.80
2019-03-22T12:10:46.829Z,13.70
2019-03-22T12:13:26.962Z,13.70
2019-03-22T12:16:07.349Z,13.70
2019-03-22T12:18:50.307Z,13.60
2019-03-22T12:21:30.489Z,13.60
2019-03-22T12:24:10.272Z,13.80
2019-03-22T12:26:50.985Z,13.80
2019-03-22T12:29:31.216Z,13.70
2019-03-22T12:32:10.898Z,13.60
2019-03-22T12:34:51.786Z,13.50
2019-03-22T12:37:32.139Z,13.70
2019-03-22T12:40:12.321Z,13.40
2019-03-22T12:42:52.417Z,13.50
2019-03-22T12:45:32.950Z,13.40
2019-03-22T12:48:12.825Z,13.60
2019-03-22T12:50:53.077Z,13.80
2019-03-22T12:53:33.443Z,13.80
2019-03-22T12:56:14.114Z,14.00
2019-03-22T12:58:53.994Z,13.90
2019-03-22T13:01:34.312Z,13.90
2019-03-22T13:04:14.422Z,13.90
2019-03-22T13:06:54.213Z,14.10
2019-03-22T13:09:34.234Z,14.10
2019-03-22T13:12:14.866Z,14.20
2019-03-22T13:14:56.674Z,14.30
2019-03-22T13:17:36.501Z,14.30
2019-03-22T13:20:06.674Z,14.40
2019-03-22T13:22:54.549Z,14.50
2019-03-22T13:25:35.544Z,14.60
2019-03-22T13:28:16.080Z,14.80
2019-03-22T13:30:57.237Z,14.80
2019-03-22T13:33:36.906Z,14.90
2019-03-22T13:36:17.548Z,15.00
2019-03-22T13:38:57.174Z,15.10
2019-03-22T13:41:38.179Z,15.20
2019-03-22T13:44:18.489Z,15.20
2019-03-22T13:46:58.974Z,15.30
2019-03-22T13:49:39.258Z,15.30
2019-03-22T13:52:19.085Z,15.40
2019-03-22T13:54:59.349Z,15.40
2019-03-22T13:57:38.978Z,15.50
2019-03-22T14:00:19.357Z,15.60
2019-03-22T14:03:02.971Z,15.50
2019-03-22T14:05:41.470Z,15.60
2019-03-22T14:08:22.331Z,15.70
2019-03-22T14:11:02.973Z,15.70
2019-03-22T14:13:43.303Z,15.70
2019-03-22T14:16:23.765Z,15.80
2019-03-22T14:19:03.554Z,15.80
2019-03-22T14:21:43.861Z,15.90
2019-03-22T14:24:24.422Z,16.00
2019-03-22T14:27:04.077Z,16.10
2019-03-22T14:29:44.422Z,16.10
2019-03-22T14:32:24.486Z,16.20
2019-03-22T14:35:05.302Z,16.20
2019-03-22T14:37:46.333Z,16.20
2019-03-22T14:40:26.509Z,16.30
2019-03-22T14:43:06.453Z,16.30
2019-03-22T14:45:47.266Z,16.40
2019-03-22T14:48:26.944Z,16.30
2019-03-22T14:51:06.890Z,16.40
2019-03-22T14:53:47.333Z,16.40
2019-03-22T14:56:27.538Z,16.50
2019-03-22T14:59:08.275Z,16.50
2019-03-22T15:01:48.842Z,16.50
2019-03-22T15:04:28.916Z,16.60
2019-03-22T15:07:19.517Z,16.50
2019-03-22T15:09:51.351Z,16.40
2019-03-22T15:12:31.153Z,16.50
2019-03-22T15:15:30.620Z,16.50
2019-03-22T15:18:29.737Z,16.50
2019-03-22T15:21:29.130Z,16.60
2019-03-22T15:24:28.330Z,16.70
2019-03-22T15:27:31.808Z,16.70
2019-03-22T15:30:31.366Z,16.60
2019-03-22T15:33:34.483Z,16.60
2019-03-22T15:36:35.195Z,16.60
2019-03-22T15:39:35.105Z,16.60
2019-03-22T15:42:14.993Z,16.60
2019-03-22T15:44:56.649Z,16.60
2019-03-22T15:47:36.381Z,16.60
2019-03-22T15:50:16.633Z,16.60
2019-03-22T15:52:56.146Z,16.50
2019-03-22T15:55:36.769Z,16.50
2019-03-22T15:58:16.686Z,16.60
2019-03-22T16:00:56.342Z,16.60
2019-03-22T16:03:44.153Z,16.60
2019-03-22T16:06:19.814Z,16.50
2019-03-22T16:09:00.137Z,16.50
2019-03-22T16:11:39.881Z,16.50
2019-03-22T16:14:19.555Z,16.50
2019-03-22T16:17:00.073Z,16.50
2019-03-22T16:19:39.618Z,16.40
2019-03-22T16:22:19.893Z,16.30
2019-03-22T16:24:59.797Z,16.40
2019-03-22T16:27:41.753Z,16.30
2019-03-22T16:30:22.312Z,16.30
2019-03-22T16:33:02.454Z,16.30
2019-03-22T16:35:43.079Z,16.40
2019-03-22T16:38:22.805Z,16.30
2019-03-22T16:41:02.974Z,16.20
2019-03-22T16:43:43.264Z,16.20
2019-03-22T16:46:22.811Z,16.10
2019-03-22T16:49:03.080Z,16.10
2019-03-22T16:51:42.949Z,16.00
2019-03-22T16:54:23.226Z,16.00
2019-03-22T16:57:03.013Z,16.00
2019-03-22T16:59:43.618Z,15.90
2019-03-22T17:02:23.870Z,15.90
2019-03-22T17:05:04.577Z,15.80
2019-03-22T17:07:44.483Z,15.70
2019-03-22T17:10:24.290Z,15.60
2019-03-22T17:13:04.441Z,15.70
2019-03-22T17:15:44.880Z,15.70
2019-03-22T17:18:25.132Z,15.50
2019-03-22T17:21:04.685Z,15.50
2019-03-22T17:23:45.217Z,15.40
2019-03-22T17:26:25.429Z,15.10
2019-03-22T17:29:05.377Z,14.90
2019-03-22T17:31:46.838Z,14.70
2019-03-22T17:34:26.557Z,14.40
2019-03-22T17:37:06.713Z,14.20
2019-03-22T17:39:47.159Z,14.10
2019-03-22T17:42:26.740Z,14.00
2019-03-22T17:44:54.446Z,13.80
2019-03-22T17:47:41.946Z,13.50
2019-03-22T17:50:21.946Z,13.30
2019-03-22T17:53:02.000Z,13.30
2019-03-22T17:55:43.405Z,13.10
2019-03-22T17:58:23.566Z,13.10
2019-03-22T18:01:03.715Z,12.90
2019-03-22T18:03:44.006Z,12.80
2019-03-22T18:06:24.113Z,12.60
2019-03-22T18:09:04.737Z,12.50
2019-03-22T18:11:44.409Z,12.50
2019-03-22T18:14:26.903Z,12.40
2019-03-22T18:17:07.053Z,12.10
2019-03-22T18:19:48.197Z,12.00
2019-03-22T18:22:27.838Z,12.10
2019-03-22T18:25:08.373Z,11.70
2019-03-22T18:27:48.341Z,11.60
2019-03-22T18:30:28.396Z,11.30
2019-03-22T18:33:11.107Z,11.30
2019-03-22T18:35:52.108Z,11.30
2019-03-22T18:38:31.567Z,11.00
2019-03-22T18:41:11.405Z,10.90
2019-03-22T18:43:51.517Z,11.00
2019-03-22T18:46:31.690Z,10.80
2019-03-22T18:49:12.008Z,10.90
2019-03-22T18:51:52.643Z,10.80
2019-03-22T18:54:33.497Z,10.60
2019-03-22T18:57:13.477Z,10.70
2019-03-22T18:59:53.422Z,10.60
2019-03-22T19:02:33.565Z,10.50
2019-03-22T19:05:13.867Z,10.50
2019-03-22T19:07:53.893Z,10.40
2019-03-22T19:10:33.942Z,10.30
2019-03-22T19:13:13.677Z,10.20
2019-03-22T19:15:54.148Z,10.00
2019-03-22T19:18:34.465Z,10.00
2019-03-22T19:21:14.525Z,9.70
2019-03-22T19:23:54.341Z,9.70
2019-03-22T19:26:34.425Z,9.60
2019-03-22T19:29:15.094Z,9.60
2019-03-22T19:31:55.565Z,9.40
2019-03-22T19:34:35.238Z,9.40
2019-03-22T19:37:15.418Z,9.40
2019-03-22T19:39:55.723Z,9.50
2019-03-22T19:42:35.861Z,9.40
2019-03-22T19:45:16.713Z,9.50
2019-03-22T19:47:57.142Z,9.60
2019-03-22T19:50:37.880Z,9.50
2019-03-22T19:53:18.129Z,9.40
2019-03-22T19:55:57.965Z,9.40
2019-03-22T19:58:38.944Z,9.20
2019-03-22T20:01:18.439Z,9.10
2019-03-22T20:03:59.453Z,9.00
2019-03-22T20:06:39.653Z,9.00
2019-03-22T20:09:09.453Z,9.00
2019-03-22T20:11:56.552Z,8.90
2019-03-22T20:14:38.016Z,8.80
2019-03-22T20:17:17.937Z,8.80
2019-03-22T20:19:59.205Z,8.60
2019-03-22T20:22:43.294Z,8.60
2019-03-22T20:25:23.979Z,8.70
2019-03-22T20:28:04.230Z,8.60
2019-03-22T20:30:44.965Z,8.60
2019-03-22T20:33:26.027Z,8.50
2019-03-22T20:36:07.355Z,8.60
2019-03-22T20:38:47.553Z,8.70
2019-03-22T20:41:27.573Z,8.80
2019-03-22T20:44:07.553Z,8.60
2019-03-22T20:46:47.753Z,8.60
2019-03-22T20:49:28.347Z,8.60
2019-03-22T20:52:09.158Z,8.50
2019-03-22T20:54:49.704Z,8.50
2019-03-22T20:57:29.406Z,8.70
2019-03-22T21:00:09.881Z,8.70
2019-03-22T21:02:49.481Z,8.60
2019-03-22T21:05:29.920Z,8.50
2019-03-22T21:08:10.458Z,8.50
2019-03-22T21:10:51.313Z,8.50
2019-03-22T21:13:31.717Z,8.40
2019-03-22T21:16:11.905Z,8.20
2019-03-22T21:18:51.697Z,8.10
2019-03-22T21:21:36.284Z,8.10
2019-03-22T21:24:14.104Z,8.00
2019-03-22T21:26:54.145Z,8.00
2019-03-22T21:29:43.657Z,7.90
2019-03-22T21:32:04.893Z,7.90
2019-03-22T21:34:51.945Z,7.90
2019-03-22T21:37:31.530Z,7.90
2019-03-22T21:40:12.009Z,8.00
2019-03-22T21:42:51.517Z,8.00
2019-03-22T21:45:31.813Z,7.90
2019-03-22T21:48:11.661Z,7.80
2019-03-22T21:50:51.682Z,7.60
2019-03-22T21:53:31.653Z,7.50
2019-03-22T21:56:11.991Z,7.50
2019-03-22T21:58:51.910Z,7.40
2019-03-22T22:01:31.901Z,7.30
2019-03-22T22:04:11.801Z,7.40
2019-03-22T22:06:52.680Z,7.40
2019-03-22T22:09:32.510Z,7.40
2019-03-22T22:12:12.589Z,7.30
2019-03-22T22:14:52.553Z,7.30
2019-03-22T22:17:32.630Z,7.20
2019-03-22T22:20:13.453Z,7.20
2019-03-22T22:22:53.659Z,7.20
2019-03-22T22:25:33.931Z,7.20
2019-03-22T22:28:13.974Z,7.00
2019-03-22T22:30:53.720Z,6.90
2019-03-22T22:33:34.225Z,6.80
2019-03-22T22:36:14.114Z,6.90
2019-03-22T22:38:54.142Z,6.80
2019-03-22T22:41:34.260Z,6.60
2019-03-22T22:44:13.950Z,6.60
2019-03-22T22:46:54.170Z,6.50
2019-03-22T22:49:34.021Z,6.40
2019-03-22T22:52:14.114Z,6.30
2019-03-22T22:54:54.375Z,6.30
2019-03-22T22:57:34.236Z,6.20
2019-03-22T23:00:14.434Z,6.00
2019-03-22T23:02:55.345Z,5.90
2019-03-22T23:05:35.386Z,5.80
2019-03-22T23:08:15.583Z,5.80
2019-03-22T23:10:55.718Z,5.80
2019-03-22T23:13:36.098Z,5.80
2019-03-22T23:16:15.662Z,5.80
2019-03-22T23:18:55.845Z,6.00
2019-03-22T23:21:36.150Z,5.90
2019-03-22T23:24:16.148Z,5.90
2019-03-22T23:26:55.913Z,5.90
2019-03-22T23:29:36.222Z,6.20
2019-03-22T23:32:19.057Z,6.20
2019-03-22T23:34:59.512Z,6.00
2019-03-22T23:37:39.547Z,5.80
2019-03-22T23:40:19.793Z,5.80
2019-03-22T23:42:59.764Z,5.70
2019-03-22T23:45:39.645Z,5.70
2019-03-22T23:48:19.577Z,5.70
2019-03-22T23:50:59.802Z,5.70
2019-03-22T23:53:39.809Z,5.80
2019-03-22T23:56:19.917Z,5.70
2019-03-22T23:59:00.207Z,5.60
